createdAt,value
2023-02-18T00:01:25.588Z,76.38
2023-02-18T00:04:31.748Z,77.72
2023-02-18T00:07:40.126Z,80.78
2023-02-18T00:10:45.969Z,80.93
2023-02-18T00:13:58.870Z,85.53
2023-02-18T00:17:04.647Z,85.70
2023-02-18T00:20:10.402Z,84.50
2023-02-18T00:23:15.895Z,89.15
2023-02-18T00:26:21.957Z,86.35
2023-02-18T00:29:28.225Z,84.88
2023-02-18T00:32:35.357Z,87.65
2023-02-18T00:35:40.524Z,83.30
2023-02-18T00:38:48.165Z,84.47
2023-02-18T00:41:53.327Z,84.22
2023-02-18T00:44:58.738Z,82.22
2023-02-18T00:48:04.216Z,85.82
2023-02-18T00:51:10.477Z,86.97
2023-02-18T00:54:16.061Z,84.90
2023-02-18T00:57:21.702Z,81.65
2023-02-18T01:00:28.577Z,79.47
2023-02-18T01:03:34.596Z,82.50
2023-02-18T01:06:40.123Z,82.43
2023-02-18T01:09:45.648Z,78.53
2023-02-18T01:12:52.445Z,82.97
2023-02-18T01:15:58.521Z,84.90
2023-02-18T01:19:03.567Z,92.85
2023-02-18T01:22:09.159Z,80.60
2023-02-18T01:25:15.684Z,90.15
2023-02-18T01:28:25.569Z,91.15
2023-02-18T01:31:31.026Z,85.80
2023-02-18T01:34:38.102Z,81.80
2023-02-18T01:37:43.923Z,74.22
2023-02-18T01:40:52.429Z,74.90
2023-02-18T01:44:16.041Z,83.75
2023-02-18T01:47:24.230Z,76.85
2023-02-18T01:50:30.739Z,73.15
2023-02-18T01:54:00.731Z,75.72
2023-02-18T01:57:15.094Z,66.05
2023-02-18T02:00:24.115Z,68.63
2023-02-18T02:03:31.136Z,67.75
2023-02-18T02:06:36.916Z,74.28
2023-02-18T02:09:43.409Z,62.22
2023-02-18T02:13:12.831Z,67.82
2023-02-18T02:16:43.804Z,62.58
2023-02-18T02:20:07.583Z,72.15
2023-02-18T02:23:49.864Z,66.50
2023-02-18T02:27:10.734Z,66.25
2023-02-18T02:30:35.756Z,62.72
2023-02-18T02:33:55.003Z,66.95
2023-02-18T02:37:09.773Z,63.10
2023-02-18T02:40:40.834Z,61.20
2023-02-18T02:44:13.039Z,62.15
2023-02-18T02:47:46.029Z,66.13
2023-02-18T02:51:06.855Z,61.20
2023-02-18T02:54:21.874Z,64.60
2023-02-18T02:57:27.430Z,65.18
2023-02-18T03:01:22.090Z,65.65
2023-02-18T03:04:53.729Z,60.40
2023-02-18T03:08:07.428Z,58.60
2023-02-18T03:11:16.180Z,56.90
2023-02-18T03:15:09.388Z,58.42
2023-02-18T03:18:31.758Z,55.17
2023-02-18T03:21:45.233Z,59.92
2023-02-18T03:24:57.105Z,58.65
2023-02-18T03:28:16.330Z,53.75
2023-02-18T03:31:26.824Z,59.15
2023-02-18T03:34:39.442Z,52.65
2023-02-18T03:38:20.776Z,58.90
2023-02-18T03:41:26.128Z,56.90
2023-02-18T03:44:32.366Z,57.05
2023-02-18T03:47:38.436Z,52.88
2023-02-18T03:50:43.889Z,54.13
2023-02-18T03:53:49.360Z,53.20
2023-02-18T03:56:54.618Z,53.50
2023-02-18T03:59:59.929Z,55.80
2023-02-18T04:03:05.606Z,57.22
2023-02-18T04:06:10.979Z,60.10
2023-02-18T04:09:16.766Z,58.33
2023-02-18T04:12:24.245Z,54.00
2023-02-18T04:15:29.584Z,55.65
2023-02-18T04:18:35.124Z,60.00
2023-02-18T04:21:40.561Z,53.05
2023-02-18T04:24:45.766Z,52.72
2023-02-18T04:27:51.060Z,54.25
2023-02-18T04:30:56.296Z,64.47
2023-02-18T04:34:01.941Z,54.17
2023-02-18T04:37:07.972Z,56.28
2023-02-18T04:40:13.811Z,59.45
2023-02-18T04:43:19.598Z,61.63
2023-02-18T04:46:25.083Z,57.45
2023-02-18T04:49:30.402Z,55.70
2023-02-18T04:52:35.878Z,55.28
2023-02-18T04:55:41.317Z,58.80
2023-02-18T04:58:46.787Z,60.00
2023-02-18T05:01:52.776Z,60.13
2023-02-18T05:04:58.540Z,59.50
2023-02-18T05:08:04.971Z,66.07
2023-02-18T05:11:10.706Z,54.10
2023-02-18T05:14:16.606Z,59.20
2023-02-18T05:17:22.010Z,62.70
2023-02-18T05:20:27.718Z,62.47
2023-02-18T05:23:33.516Z,62.17
2023-02-18T05:26:39.111Z,55.53
2023-02-18T05:29:44.702Z,63.08
2023-02-18T05:32:50.250Z,62.65
2023-02-18T05:35:55.907Z,65.15
2023-02-18T05:39:01.242Z,63.25
2023-02-18T05:42:07.592Z,58.60
2023-02-18T05:45:12.866Z,67.20
2023-02-18T05:48:19.034Z,61.42
2023-02-18T05:51:24.399Z,60.92
2023-02-18T05:54:30.225Z,66.15
2023-02-18T05:57:35.718Z,65.38
2023-02-18T06:00:41.716Z,70.63
2023-02-18T06:03:47.345Z,65.18
2023-02-18T06:06:53.062Z,65.90
2023-02-18T06:09:58.606Z,62.53
2023-02-18T06:13:04.465Z,62.92
2023-02-18T06:16:10.124Z,59.35
2023-02-18T06:19:17.498Z,59.17
2023-02-18T06:22:22.996Z,60.75
2023-02-18T06:25:28.667Z,61.47
2023-02-18T06:28:34.310Z,60.38
2023-02-18T06:31:40.049Z,60.00
2023-02-18T06:34:45.450Z,66.32
2023-02-18T06:37:50.685Z,60.97
2023-02-18T06:40:56.026Z,59.80
2023-02-18T06:44:01.370Z,63.53
2023-02-18T06:47:07.512Z,64.65
2023-02-18T06:50:13.212Z,63.65
2023-02-18T06:53:19.116Z,66.70
2023-02-18T06:56:24.499Z,70.07
2023-02-18T06:59:30.077Z,66.40
2023-02-18T07:02:35.398Z,63.40
2023-02-18T07:05:41.007Z,72.75
2023-02-18T07:08:46.231Z,60.47
2023-02-18T07:11:51.854Z,64.90
2023-02-18T07:14:57.264Z,72.43
2023-02-18T07:18:02.729Z,75.57
2023-02-18T07:21:08.686Z,61.85
2023-02-18T07:24:14.430Z,65.88
2023-02-18T07:27:21.017Z,68.07
2023-02-18T07:30:26.621Z,64.35
2023-02-18T07:33:32.135Z,62.45
2023-02-18T07:36:37.604Z,65.57
2023-02-18T07:39:43.670Z,61.97
2023-02-18T07:42:49.532Z,67.30
2023-02-18T07:45:55.156Z,70.63
2023-02-18T07:49:00.771Z,65.72
2023-02-18T07:52:06.312Z,63.05
2023-02-18T07:55:11.878Z,62.72
2023-02-18T07:58:28.476Z,68.25
2023-02-18T08:01:33.772Z,67.65
2023-02-18T08:04:39.075Z,75.85
2023-02-18T08:07:44.993Z,67.00
2023-02-18T08:10:51.495Z,66.07
2023-02-18T08:13:56.937Z,70.75
2023-02-18T08:17:02.374Z,64.68
2023-02-18T08:20:08.244Z,63.83
2023-02-18T08:23:15.288Z,70.28
2023-02-18T08:26:21.386Z,71.35
2023-02-18T08:29:26.984Z,68.13
2023-02-18T08:32:32.482Z,63.70
2023-02-18T08:35:38.089Z,63.75
2023-02-18T08:38:44.804Z,64.90
2023-02-18T08:41:50.461Z,64.93
2023-02-18T08:44:56.379Z,63.40
2023-02-18T08:48:19.810Z,64.15
2023-02-18T08:51:26.693Z,66.20
2023-02-18T08:54:32.648Z,63.35
2023-02-18T08:57:37.966Z,65.28
2023-02-18T09:00:44.185Z,67.05
2023-02-18T09:03:49.598Z,66.65
2023-02-18T09:06:55.042Z,66.57
2023-02-18T09:10:00.811Z,66.32
2023-02-18T09:13:06.572Z,65.97
2023-02-18T09:16:15.752Z,69.88
2023-02-18T09:19:21.450Z,67.45
2023-02-18T09:22:26.666Z,71.22
2023-02-18T09:25:32.090Z,67.00
2023-02-18T09:28:37.717Z,70.90
2023-02-18T09:31:43.186Z,67.82
2023-02-18T09:34:48.209Z,69.13
2023-02-18T09:37:53.854Z,68.38
2023-02-18T09:41:02.491Z,68.75
2023-02-18T09:44:25.732Z,73.10
2023-02-18T09:47:41.003Z,73.25
2023-02-18T09:50:53.170Z,70.43
2023-02-18T09:53:58.576Z,75.43
2023-02-18T09:57:06.237Z,75.30
2023-02-18T10:00:37.038Z,72.88
2023-02-18T10:03:44.145Z,76.87
2023-02-18T10:06:51.038Z,75.93
2023-02-18T10:10:01.640Z,77.97
2023-02-18T10:13:14.821Z,78.63
2023-02-18T10:16:22.361Z,73.82
2023-02-18T10:19:49.493Z,74.80
2023-02-18T10:22:57.831Z,76.63
2023-02-18T10:26:07.778Z,73.43
2023-02-18T10:29:21.528Z,74.45
2023-02-18T10:32:46.139Z,75.53
2023-02-18T10:35:59.918Z,74.70
2023-02-18T10:39:39.424Z,76.93
2023-02-18T10:42:57.660Z,80.18
2023-02-18T10:46:05.989Z,81.35
2023-02-18T10:49:29.794Z,76.65
2023-02-18T10:52:40.622Z,75.20
2023-02-18T10:55:51.363Z,77.00
2023-02-18T10:59:21.739Z,77.25
2023-02-18T11:02:32.828Z,71.20
2023-02-18T11:05:39.403Z,74.15
2023-02-18T11:08:46.564Z,73.63
2023-02-18T11:12:01.418Z,73.35
2023-02-18T11:15:18.476Z,72.83
2023-02-18T11:18:30.418Z,77.25
2023-02-18T11:21:38.487Z,71.50
2023-02-18T11:24:48.700Z,72.65
2023-02-18T11:28:00.858Z,70.97
2023-02-18T11:31:06.328Z,74.10
2023-02-18T11:34:24.745Z,70.78
2023-02-18T11:37:33.407Z,72.15
2023-02-18T11:40:39.524Z,70.72
2023-02-18T11:43:53.479Z,69.90
2023-02-18T11:47:35.790Z,72.50
2023-02-18T11:50:41.308Z,71.90
2023-02-18T11:54:02.850Z,68.75
2023-02-18T11:57:14.283Z,70.00
2023-02-18T12:00:44.321Z,67.28
2023-02-18T12:03:54.723Z,70.50
2023-02-18T12:07:17.929Z,75.70
2023-02-18T12:10:28.095Z,70.05
2023-02-18T12:13:59.883Z,67.28
2023-02-18T12:17:31.191Z,67.23
2023-02-18T12:21:09.990Z,68.05
2023-02-18T12:24:27.155Z,67.80
2023-02-18T12:27:56.453Z,74.68
2023-02-18T12:31:27.800Z,71.50
2023-02-18T12:34:47.422Z,74.22
2023-02-18T12:38:23.594Z,69.00
2023-02-18T12:41:44.510Z,69.45
2023-02-18T12:45:34.940Z,69.15
2023-02-18T12:49:15.354Z,65.85
2023-02-18T12:52:39.015Z,67.00
2023-02-18T12:56:05.808Z,61.88
2023-02-18T12:59:31.855Z,64.93
2023-02-18T13:02:49.132Z,65.25
2023-02-18T13:05:55.075Z,65.38
2023-02-18T13:09:14.464Z,64.03
2023-02-18T13:12:46.343Z,64.63
2023-02-18T13:16:13.405Z,67.45
2023-02-18T13:19:56.293Z,61.53
2023-02-18T13:23:03.524Z,60.60
2023-02-18T13:26:14.287Z,66.85
2023-02-18T13:29:31.789Z,64.53
2023-02-18T13:32:56.100Z,66.72
2023-02-18T13:36:36.829Z,65.32
2023-02-18T13:39:51.084Z,67.18
2023-02-18T13:43:29.387Z,62.63
2023-02-18T13:46:50.084Z,64.35
2023-02-18T13:49:55.717Z,67.03
2023-02-18T13:53:08.013Z,66.07
2023-02-18T13:56:33.069Z,61.70
2023-02-18T13:59:48.628Z,62.08
2023-02-18T14:03:03.077Z,61.88
2023-02-18T14:06:19.459Z,64.90
2023-02-18T14:09:24.999Z,65.13
2023-02-18T14:12:38.138Z,61.97
2023-02-18T14:15:57.897Z,60.70
2023-02-18T14:19:03.196Z,58.22
2023-02-18T14:22:45.699Z,59.05
2023-02-18T14:25:55.625Z,53.97
2023-02-18T14:29:07.334Z,55.72
2023-02-18T14:32:15.151Z,58.65
2023-02-18T14:35:31.262Z,60.92
2023-02-18T14:38:48.350Z,62.38
2023-02-18T14:42:20.310Z,61.20
2023-02-18T14:45:40.631Z,61.58
2023-02-18T14:49:16.568Z,60.35
2023-02-18T14:52:30.651Z,56.50
2023-02-18T14:55:41.199Z,56.90
2023-02-18T14:58:50.838Z,58.13
2023-02-18T15:01:57.592Z,61.80
2023-02-18T15:05:17.955Z,59.85
2023-02-18T15:08:26.594Z,59.97
2023-02-18T15:11:38.776Z,58.17
2023-02-18T15:14:45.884Z,61.60
2023-02-18T15:17:51.563Z,58.05
2023-02-18T15:20:57.380Z,61.05
2023-02-18T15:24:19.393Z,57.17
2023-02-18T15:30:32.320Z,56.72
2023-02-18T15:33:44.160Z,57.30
2023-02-18T15:36:53.591Z,56.33
2023-02-18T15:39:59.325Z,53.63
2023-02-18T15:43:07.121Z,55.35
2023-02-18T15:46:14.759Z,56.47
2023-02-18T15:49:23.706Z,59.45
2023-02-18T15:52:32.258Z,56.05
2023-02-18T15:55:41.075Z,56.08
2023-02-18T15:58:47.107Z,54.60
2023-02-18T16:01:55.714Z,55.50
2023-02-18T16:05:05.093Z,58.00
2023-02-18T16:08:28.108Z,57.45
2023-02-18T16:11:39.381Z,58.00
2023-02-18T16:14:50.307Z,58.97
2023-02-18T16:17:59.235Z,58.00
2023-02-18T16:21:20.455Z,58.03
2023-02-18T16:24:29.757Z,57.10
2023-02-18T16:27:38.106Z,58.30
2023-02-18T16:30:46.520Z,55.80
2023-02-18T16:33:51.884Z,58.78
2023-02-18T16:37:16.000Z,55.38
2023-02-18T16:40:26.609Z,56.53
2023-02-18T16:43:33.450Z,60.70
2023-02-18T16:46:38.949Z,57.17
2023-02-18T16:49:51.670Z,59.95
2023-02-18T16:52:57.391Z,60.05
2023-02-18T16:56:03.192Z,61.30
2023-02-18T16:59:08.490Z,61.25
2023-02-18T17:02:21.486Z,60.72
2023-02-18T17:05:30.661Z,62.70
2023-02-18T17:08:36.554Z,61.75
2023-02-18T17:11:42.526Z,66.18
2023-02-18T17:14:48.363Z,64.45
2023-02-18T17:17:54.120Z,68.47
2023-02-18T17:20:59.381Z,66.93
2023-02-18T17:24:05.437Z,70.03
2023-02-18T17:27:11.394Z,69.15
2023-02-18T17:30:18.533Z,71.35
2023-02-18T17:33:25.553Z,76.05
2023-02-18T17:36:31.197Z,108.70
2023-02-18T17:39:37.265Z,98.18
2023-02-18T17:42:43.174Z,84.63
2023-02-18T17:46:13.721Z,77.03
2023-02-18T17:49:19.702Z,77.13
2023-02-18T17:52:31.735Z,76.15
2023-02-18T17:55:37.683Z,93.75
2023-02-18T17:58:43.235Z,83.22
2023-02-18T18:01:49.130Z,83.68
2023-02-18T18:04:55.678Z,80.55
2023-02-18T18:08:03.185Z,85.50
2023-02-18T18:11:13.741Z,84.85
2023-02-18T18:14:19.198Z,84.13
2023-02-18T18:17:24.476Z,84.65
2023-02-18T18:20:32.291Z,85.13
2023-02-18T18:23:38.157Z,83.25
2023-02-18T18:26:43.733Z,86.20
2023-02-18T18:29:49.192Z,85.57
2023-02-18T18:32:55.090Z,84.45
2023-02-18T18:36:01.601Z,87.18
2023-02-18T18:39:07.480Z,83.32
2023-02-18T18:42:12.858Z,85.90
2023-02-18T18:45:22.412Z,89.78
2023-02-18T18:48:27.494Z,90.43
2023-02-18T18:51:33.306Z,93.00
2023-02-18T18:54:41.595Z,88.95
2023-02-18T18:57:47.349Z,95.45
2023-02-18T19:00:59.189Z,93.43
2023-02-18T19:04:04.290Z,97.47
2023-02-18T19:07:09.434Z,90.25
2023-02-18T19:10:15.853Z,86.15
2023-02-18T19:13:29.640Z,85.53
2023-02-18T19:16:39.704Z,84.88
2023-02-18T19:19:45.177Z,84.85
2023-02-18T19:22:51.521Z,84.63
2023-02-18T19:25:57.618Z,84.07
2023-02-18T19:29:03.006Z,101.95
2023-02-18T19:32:08.831Z,105.75
2023-02-18T19:35:14.264Z,89.63
2023-02-18T19:38:19.757Z,87.03
2023-02-18T19:41:25.280Z,85.63
2023-02-18T19:44:35.008Z,88.72
2023-02-18T19:47:40.507Z,86.13
2023-02-18T19:50:45.858Z,85.65
2023-02-18T19:53:52.048Z,84.68
2023-02-18T19:56:58.357Z,84.07
2023-02-18T20:00:06.070Z,86.65
2023-02-18T20:03:18.766Z,89.57
2023-02-18T20:06:24.549Z,89.70
2023-02-18T20:09:29.755Z,93.03
2023-02-18T20:12:34.901Z,94.90
2023-02-18T20:15:41.360Z,90.43
2023-02-18T20:18:46.685Z,91.82
2023-02-18T20:21:52.292Z,94.72
2023-02-18T20:24:57.739Z,90.70
2023-02-18T20:28:02.732Z,94.68
2023-02-18T20:31:11.700Z,93.05
2023-02-18T20:34:17.905Z,94.55
2023-02-18T20:37:23.629Z,93.15
2023-02-18T20:40:29.366Z,89.28
2023-02-18T20:43:35.646Z,91.75
2023-02-18T20:46:41.162Z,95.63
2023-02-18T20:49:46.998Z,89.70
2023-02-18T20:52:53.025Z,94.13
2023-02-18T20:55:59.040Z,96.47
2023-02-18T20:59:05.645Z,96.38
2023-02-18T21:02:16.871Z,93.13
2023-02-18T21:05:22.797Z,91.07
2023-02-18T21:08:29.528Z,90.38
2023-02-18T21:11:35.472Z,98.28
2023-02-18T21:14:41.445Z,89.53
2023-02-18T21:17:46.715Z,91.40
2023-02-18T21:20:52.431Z,83.32
2023-02-18T21:23:57.824Z,86.45
2023-02-18T21:27:03.133Z,82.68
2023-02-18T21:30:09.449Z,87.90
2023-02-18T21:33:15.577Z,85.43
2023-02-18T21:36:22.156Z,87.03
2023-02-18T21:39:28.047Z,89.13
2023-02-18T21:42:34.923Z,85.68
2023-02-18T21:45:40.436Z,88.88
2023-02-18T21:49:05.097Z,86.57
2023-02-18T21:52:10.694Z,87.32
2023-02-18T21:55:16.177Z,82.25
2023-02-18T21:58:22.045Z,86.05
2023-02-18T22:01:27.852Z,80.63
2023-02-18T22:04:34.410Z,91.00
2023-02-18T22:07:39.472Z,97.10
2023-02-18T22:10:44.768Z,83.20
2023-02-18T22:13:50.396Z,80.50
2023-02-18T22:16:56.540Z,77.20
2023-02-18T22:20:02.325Z,74.20
2023-02-18T22:23:07.749Z,74.18
2023-02-18T22:26:13.209Z,72.40
2023-02-18T22:29:20.105Z,75.30
2023-02-18T22:32:25.211Z,78.82
2023-02-18T22:35:30.685Z,77.40
2023-02-18T22:38:37.846Z,83.53
2023-02-18T22:41:44.083Z,80.07
2023-02-18T22:44:49.650Z,81.78
2023-02-18T22:47:55.282Z,82.82
2023-02-18T22:51:12.006Z,83.43
2023-02-18T22:54:19.182Z,85.93
2023-02-18T22:57:24.159Z,84.13
2023-02-18T23:00:29.696Z,83.13
2023-02-18T23:03:35.579Z,83.43
2023-02-18T23:06:44.022Z,83.43
2023-02-18T23:09:49.458Z,92.55
2023-02-18T23:12:55.768Z,89.00
2023-02-18T23:16:04.632Z,94.53
2023-02-18T23:19:10.008Z,93.07
2023-02-18T23:22:19.425Z,93.68
2023-02-18T23:25:24.725Z,93.00
2023-02-18T23:28:48.170Z,96.05
2023-02-18T23:31:53.890Z,99.65
2023-02-18T23:34:59.447Z,95.45
2023-02-18T23:38:04.753Z,96.55
2023-02-18T23:41:10.435Z,91.57
2023-02-18T23:44:18.642Z,94.68
2023-02-18T23:47:23.673Z,96.55
2023-02-18T23:50:29.195Z,99.95
2023-02-18T23:53:36.927Z,91.10
2023-02-18T23:56:42.810Z,94.30
2023-02-18T23:59:48.034Z,96.80
